Terminal Aerodrome Forecast
Issued by NWS Lubbock, TX

Home | Current Version | Previous Version | Text Only | Print | Product List | Glossary On
Versions: 1 2 3 4 5 6 7 8 9 10 11 12
000
FTUS44 KLUB 092300
TAFLBB
TAF
KLBB 092320Z 1000/1024 17014G24KT P6SM FEW090
     FM100100 20008KT P6SM FEW250
     FM101700 19015G25KT P6SM FEW200=

USA.gov is the U.S. government's official web portal to all federal, state and local government web resources and services.